createdAt,value
2023-01-23T02:37:09.461Z,93412.00
2023-01-23T02:38:09.477Z,93414.00
2023-01-23T02:39:09.481Z,93414.00
2023-01-23T02:40:09.486Z,93414.00
2023-01-23T02:41:09.499Z,93416.00
2023-01-23T02:42:09.535Z,93416.00
2023-01-23T02:43:09.516Z,93422.00
2023-01-23T02:44:09.522Z,93426.00
2023-01-23T02:45:09.530Z,93430.00
2023-01-23T02:46:09.714Z,93432.00
2023-01-23T02:47:09.536Z,93432.00
2023-01-23T02:48:09.546Z,93434.00
2023-01-23T02:49:09.573Z,93432.00
2023-01-23T02:50:09.637Z,93436.00
2023-01-23T02:51:09.656Z,93430.00
2023-01-23T02:52:09.591Z,93434.00
2023-01-23T02:53:09.568Z,93436.00
2023-01-23T02:54:09.585Z,93438.00
2023-01-23T02:55:09.578Z,93440.00
2023-01-23T02:56:09.587Z,93438.00
2023-01-23T02:57:09.594Z,93440.00
2023-01-23T02:58:09.612Z,93440.00
2023-01-23T02:59:09.627Z,93444.00
2023-01-23T03:00:09.621Z,93444.00
2023-01-23T03:01:09.671Z,93444.00
2023-01-23T03:02:09.843Z,93444.00
2023-01-23T03:03:09.666Z,93446.00
2023-01-23T03:04:09.661Z,93448.00
2023-01-23T03:05:09.718Z,93453.00
2023-01-23T03:06:09.769Z,93457.00
2023-01-23T03:07:09.684Z,93455.00
2023-01-23T03:08:09.685Z,93450.00
2023-01-23T03:09:09.697Z,93446.00
2023-01-23T03:10:09.706Z,93444.00
2023-01-23T03:11:09.707Z,93442.00
2023-01-23T03:12:09.716Z,93438.00
2023-01-23T03:13:09.733Z,93434.00
2023-01-23T03:14:09.726Z,93432.00
2023-01-23T03:15:09.732Z,93434.00
2023-01-23T03:16:09.763Z,93434.00
2023-01-23T03:17:09.743Z,93434.00
2023-01-23T03:18:09.765Z,93434.00
2023-01-23T03:19:09.768Z,93436.00
2023-01-23T03:20:09.774Z,93436.00
2023-01-23T03:21:09.787Z,93436.00
2023-01-23T03:22:09.867Z,93436.00
2023-01-23T03:23:09.800Z,93440.00
2023-01-23T03:24:09.814Z,93436.00
2023-01-23T03:25:09.807Z,93436.00
2023-01-23T03:26:09.810Z,93438.00
2023-01-23T03:27:09.809Z,93440.00
2023-01-23T03:28:09.839Z,93440.00
2023-01-23T03:29:09.830Z,93442.00
2023-01-23T03:30:09.846Z,93442.00
2023-01-23T03:31:09.851Z,93442.00
2023-01-23T03:32:09.868Z,93440.00
2023-01-23T03:33:09.872Z,93440.00
2023-01-23T03:34:09.888Z,93438.00
2023-01-23T03:35:09.890Z,93438.00
2023-01-23T03:36:12.884Z,93436.00
2023-01-23T03:37:09.871Z,93436.00
2023-01-23T03:38:09.941Z,93434.00
2023-01-23T03:39:09.826Z,93438.00
2023-01-23T03:40:09.794Z,93436.00
2023-01-23T03:41:09.819Z,93438.00
2023-01-23T03:42:09.728Z,93438.00
2023-01-23T03:43:09.710Z,93442.00
2023-01-23T03:44:09.706Z,93438.00
2023-01-23T03:45:09.654Z,93438.00
2023-01-23T03:46:09.620Z,93438.00
2023-01-23T03:47:09.593Z,93438.00
2023-01-23T03:48:09.594Z,93438.00
2023-01-23T03:49:09.554Z,93440.00
2023-01-23T03:50:09.523Z,93446.00
2023-01-23T03:51:09.558Z,93446.00
2023-01-23T03:52:09.496Z,93446.00
2023-01-23T03:53:09.455Z,93448.00
2023-01-23T03:54:09.505Z,93446.00
2023-01-23T03:55:09.415Z,93446.00
2023-01-23T03:56:09.379Z,93444.00
2023-01-23T03:57:09.348Z,93444.00
2023-01-23T03:58:09.326Z,93444.00
2023-01-23T03:59:09.315Z,93446.00
2023-01-23T04:00:09.271Z,93446.00
2023-01-23T04:01:09.264Z,93446.00
2023-01-23T04:02:09.223Z,93446.00
2023-01-23T04:03:09.254Z,93442.00
2023-01-23T04:04:09.168Z,93444.00
2023-01-23T04:05:09.163Z,93444.00
2023-01-23T04:06:09.128Z,93446.00
2023-01-23T04:07:09.095Z,93451.00
2023-01-23T04:08:09.086Z,93450.00
2023-01-23T04:09:09.055Z,93451.00
2023-01-23T04:10:10.751Z,93455.00
2023-01-23T04:11:09.007Z,93453.00
2023-01-23T04:12:08.984Z,93453.00
2023-01-23T04:13:08.947Z,93453.00
2023-01-23T04:14:08.944Z,93453.00
2023-01-23T04:15:08.918Z,93455.00
2023-01-23T04:16:08.978Z,93455.00
2023-01-23T04:17:08.858Z,93451.00
2023-01-23T04:18:08.834Z,93450.00
2023-01-23T04:19:08.807Z,93448.00
2023-01-23T04:20:08.779Z,93448.00
2023-01-23T04:21:08.850Z,93440.00
2023-01-23T04:22:08.725Z,93440.00
2023-01-23T04:23:08.702Z,93442.00
2023-01-23T04:24:08.678Z,93440.00
2023-01-23T04:25:08.683Z,93442.00
2023-01-23T04:26:08.713Z,93444.00
2023-01-23T04:27:08.600Z,93446.00
2023-01-23T04:28:08.575Z,93440.00
2023-01-23T04:29:08.545Z,93442.00
2023-01-23T04:30:08.519Z,93442.00
2023-01-23T04:31:08.541Z,93442.00
2023-01-23T04:32:08.493Z,93444.00
2023-01-23T04:33:08.455Z,93444.00
2023-01-23T04:34:08.414Z,93448.00
2023-01-23T04:35:08.385Z,93444.00
2023-01-23T04:36:08.367Z,93446.00
2023-01-23T04:37:08.328Z,93440.00
2023-01-23T04:38:08.311Z,93442.00
2023-01-23T04:39:08.309Z,93444.00
2023-01-23T04:40:08.263Z,93444.00
2023-01-23T04:41:08.247Z,93446.00
2023-01-23T04:42:08.300Z,93444.00
2023-01-23T04:43:08.172Z,93444.00
2023-01-23T04:44:08.161Z,93446.00
2023-01-23T04:45:08.125Z,93444.00
2023-01-23T04:46:08.200Z,93444.00
2023-01-23T04:47:08.069Z,93442.00
2023-01-23T04:48:08.059Z,93446.00
2023-01-23T04:49:08.026Z,93450.00
2023-01-23T04:50:07.997Z,93450.00
2023-01-23T04:51:08.053Z,93448.00
2023-01-23T04:52:07.938Z,93451.00
2023-01-23T04:53:07.899Z,93451.00
2023-01-23T04:54:07.883Z,93457.00
2023-01-23T04:55:07.869Z,93457.00
2023-01-23T04:56:07.827Z,93459.00
2023-01-23T04:57:07.773Z,93457.00
2023-01-23T04:58:07.821Z,93461.00
2023-01-23T04:59:07.697Z,93461.00
2023-01-23T05:00:07.695Z,93461.00
2023-01-23T05:01:07.711Z,93457.00
2023-01-23T05:02:07.640Z,93455.00
2023-01-23T05:03:07.598Z,93457.00
2023-01-23T05:04:07.549Z,93453.00
2023-01-23T05:05:07.535Z,93457.00
2023-01-23T05:06:07.483Z,93457.00
2023-01-23T05:07:07.461Z,93461.00
2023-01-23T05:08:07.407Z,93461.00
2023-01-23T05:09:07.386Z,93461.00
2023-01-23T05:10:07.355Z,93461.00
2023-01-23T05:11:07.326Z,93465.00
2023-01-23T05:12:07.302Z,93469.00
2023-01-23T05:13:07.283Z,93469.00
2023-01-23T05:14:07.313Z,93467.00
2023-01-23T05:15:07.222Z,93467.00
2023-01-23T05:16:07.214Z,93467.00
2023-01-23T05:17:07.167Z,93469.00
2023-01-23T05:18:07.197Z,93473.00
2023-01-23T05:19:07.134Z,93475.00
2023-01-23T05:20:07.096Z,93479.00
2023-01-23T05:27:06.932Z,93493.00
2023-01-23T05:28:06.909Z,93495.00
2023-01-23T05:29:06.866Z,93499.00
2023-01-23T05:30:06.942Z,93503.00
2023-01-23T05:31:06.899Z,93501.00
2023-01-23T05:32:06.817Z,93505.00
2023-01-23T05:33:06.782Z,93503.00
2023-01-23T05:34:06.797Z,93503.00
2023-01-23T05:35:06.795Z,93501.00
2023-01-23T05:36:06.817Z,93501.00
2023-01-23T05:37:06.812Z,93499.00
2023-01-23T05:38:06.819Z,93499.00
2023-01-23T05:39:06.816Z,93495.00
2023-01-23T05:40:06.825Z,93499.00
2023-01-23T05:41:06.827Z,93497.00
2023-01-23T05:42:06.847Z,93491.00
2023-01-23T05:43:06.828Z,93491.00
2023-01-23T05:44:06.849Z,93491.00
2023-01-23T05:45:06.843Z,93491.00
2023-01-23T05:46:06.989Z,93487.00
2023-01-23T05:47:06.846Z,93495.00
2023-01-23T05:48:06.841Z,93497.00
2023-01-23T05:49:06.845Z,93495.00
2023-01-23T05:50:06.845Z,93495.00
2023-01-23T05:51:06.912Z,93491.00
2023-01-23T05:52:06.855Z,93485.00
2023-01-23T05:53:06.861Z,93487.00
2023-01-23T05:54:06.867Z,93485.00
2023-01-23T05:55:06.954Z,93483.00
2023-01-23T05:56:06.900Z,93483.00
2023-01-23T05:57:06.907Z,93483.00
2023-01-23T05:58:06.873Z,93477.00
2023-01-23T05:59:06.891Z,93477.00
2023-01-23T06:00:06.902Z,93487.00
2023-01-23T06:01:06.911Z,93479.00
2023-01-23T06:02:06.988Z,93477.00
2023-01-23T06:03:06.994Z,93479.00
2023-01-23T06:04:06.900Z,93479.00
2023-01-23T06:05:06.980Z,93481.00
2023-01-23T06:06:06.905Z,93487.00
2023-01-23T06:07:06.911Z,93489.00
2023-01-23T06:08:06.929Z,93491.00
2023-01-23T06:09:06.924Z,93491.00
2023-01-23T06:10:09.706Z,93491.00
2023-01-23T06:11:06.911Z,93499.00
2023-01-23T06:12:06.882Z,93495.00
2023-01-23T06:13:06.848Z,93497.00
2023-01-23T06:14:06.824Z,93497.00
2023-01-23T06:15:06.795Z,93505.00
2023-01-23T06:16:08.506Z,93505.00
2023-01-23T06:17:06.747Z,93506.00
2023-01-23T06:18:06.881Z,93512.00
2023-01-23T06:19:06.688Z,93508.00
2023-01-23T06:20:06.661Z,93510.00
2023-01-23T06:21:06.669Z,93508.00
2023-01-23T06:22:06.622Z,93510.00
2023-01-23T06:23:06.592Z,93516.00
2023-01-23T06:24:06.556Z,93516.00
2023-01-23T06:25:06.533Z,93520.00
2023-01-23T06:38:06.193Z,93516.00
2023-01-23T06:39:06.899Z,93516.00
2023-01-23T06:40:06.138Z,93516.00
2023-01-23T06:41:06.121Z,93518.00
2023-01-23T06:42:06.093Z,93518.00
2023-01-23T06:43:06.119Z,93520.00
2023-01-23T06:44:06.105Z,93518.00
2023-01-23T06:45:06.023Z,93518.00
2023-01-23T06:46:06.043Z,93518.00
2023-01-23T06:47:05.963Z,93522.00
2023-01-23T06:48:05.959Z,93522.00
2023-01-23T06:49:06.375Z,93516.00
2023-01-23T06:50:05.976Z,93514.00
2023-01-23T06:51:05.912Z,93518.00
2023-01-23T06:52:05.818Z,93520.00
2023-01-23T06:53:05.799Z,93514.00
2023-01-23T06:54:05.758Z,93512.00
2023-01-23T06:55:05.729Z,93514.00
2023-01-23T06:56:05.727Z,93514.00
2023-01-23T06:57:05.678Z,93514.00
2023-01-23T06:58:05.668Z,93514.00
2023-01-23T06:59:05.611Z,93510.00
2023-01-23T07:00:05.588Z,93510.00
2023-01-23T07:01:05.573Z,93516.00
2023-01-23T07:02:05.541Z,93516.00
2023-01-23T07:03:05.624Z,93514.00
2023-01-23T07:06:05.504Z,93516.00
2023-01-23T07:16:06.022Z,93536.00
2023-01-23T13:19:00.918Z,93426.00
2023-01-23T13:20:00.931Z,93426.00
2023-01-23T13:21:00.912Z,93424.00
2023-01-23T13:22:01.719Z,93422.00
2023-01-23T13:23:00.887Z,93420.00
2023-01-23T13:24:00.899Z,93420.00
2023-01-23T13:25:00.886Z,93420.00
2023-01-23T13:26:00.881Z,93422.00
2023-01-23T13:27:00.884Z,93424.00
2023-01-23T13:28:00.857Z,93422.00
2023-01-23T16:55:00.485Z,93479.00
2023-01-23T17:01:00.570Z,93481.00
2023-01-23T17:04:00.584Z,93481.00
2023-01-23T17:05:00.561Z,93481.00
2023-01-23T17:06:00.616Z,93483.00
2023-01-23T17:07:00.577Z,93489.00
2023-01-23T17:08:00.570Z,93485.00
2023-01-23T17:09:00.594Z,93485.00
2023-01-23T17:10:00.591Z,93483.00
2023-01-23T17:11:00.569Z,93481.00
2023-01-23T17:12:00.597Z,93483.00
2023-01-23T17:13:00.579Z,93483.00
2023-01-23T17:14:00.680Z,93487.00
2023-01-23T17:15:00.600Z,93489.00
2023-01-23T17:16:00.677Z,93491.00
2023-01-23T17:17:00.638Z,93495.00
2023-01-23T17:18:00.604Z,93497.00
2023-01-23T17:19:00.622Z,93501.00
2023-01-23T17:20:00.625Z,93503.00
2023-01-23T17:21:00.651Z,93508.00
2023-01-23T17:22:00.633Z,93508.00
2023-01-23T17:23:00.639Z,93516.00
2023-01-23T17:24:00.653Z,93516.00
2023-01-23T17:25:00.641Z,93518.00
2023-01-23T17:26:01.739Z,93514.00
2023-01-23T17:27:00.645Z,93516.00
2023-01-23T17:28:12.283Z,93512.00
2023-01-23T17:29:01.611Z,93510.00
2023-01-23T17:30:00.665Z,93512.00
2023-01-23T17:31:00.772Z,93508.00
2023-01-23T17:32:00.530Z,93510.00
2023-01-23T17:33:00.485Z,93510.00
2023-01-23T17:34:00.466Z,93510.00
2023-01-23T17:35:02.519Z,93505.00
2023-01-23T17:36:00.546Z,93508.00
2023-01-23T17:37:00.563Z,93510.00
2023-01-23T17:38:00.562Z,93508.00
2023-01-23T17:39:00.573Z,93516.00
2023-01-23T17:40:00.547Z,93516.00
2023-01-23T17:41:00.573Z,93518.00
2023-01-23T17:42:00.577Z,93518.00
2023-01-23T17:43:00.574Z,93516.00
2023-01-23T17:44:00.599Z,93516.00
2023-01-23T17:45:00.580Z,93520.00
2023-01-23T17:46:00.789Z,93524.00
2023-01-23T17:47:00.884Z,93520.00
2023-01-23T17:48:00.591Z,93524.00
2023-01-23T17:49:00.589Z,93522.00
2023-01-23T17:50:00.611Z,93522.00
2023-01-23T17:51:00.611Z,93524.00
2023-01-23T17:52:00.603Z,93522.00
2023-01-23T17:53:00.613Z,93520.00
2023-01-23T17:54:00.603Z,93524.00
2023-01-23T17:55:00.604Z,93526.00
2023-01-23T17:56:00.603Z,93528.00
2023-01-23T17:57:00.620Z,93530.00
2023-01-23T17:58:00.610Z,93532.00
2023-01-23T17:59:00.613Z,93530.00
2023-01-23T18:00:00.770Z,93532.00
2023-01-23T18:01:00.651Z,93534.00
2023-01-23T18:02:00.795Z,93534.00
2023-01-23T18:03:00.633Z,93536.00
2023-01-23T18:04:00.646Z,93536.00
2023-01-23T18:05:00.654Z,93532.00
2023-01-23T18:06:00.670Z,93536.00
2023-01-23T18:07:00.672Z,93536.00
2023-01-23T18:08:00.653Z,93536.00
2023-01-23T18:09:00.674Z,93540.00
2023-01-23T18:10:00.677Z,93544.00
2023-01-23T18:11:00.691Z,93546.00
2023-01-23T19:48:01.208Z,93606.00
2023-01-23T19:49:02.947Z,93618.00
2023-01-23T19:50:01.197Z,93618.00
2023-01-23T19:51:01.219Z,93618.00
2023-01-23T19:52:01.213Z,93618.00
2023-01-23T19:53:01.214Z,93622.00
2023-01-23T19:54:01.321Z,93624.00
2023-01-23T19:55:01.243Z,93626.00
2023-01-23T19:56:01.258Z,93626.00
2023-01-23T19:57:01.232Z,93626.00
2023-01-23T19:58:01.264Z,93626.00
2023-01-23T19:59:01.247Z,93630.00
2023-01-23T20:00:01.256Z,93630.00
2023-01-23T20:01:01.285Z,93632.00
2023-01-23T20:02:01.281Z,93632.00
2023-01-23T20:03:01.273Z,93634.00
2023-01-23T20:04:01.270Z,93636.00
2023-01-23T20:05:01.276Z,93630.00
2023-01-23T20:06:01.861Z,93630.00
2023-01-23T20:07:01.287Z,93630.00
2023-01-23T20:08:01.340Z,93630.00
2023-01-23T20:09:01.312Z,93636.00
2023-01-23T20:10:01.404Z,93634.00
2023-01-23T20:11:01.325Z,93634.00
2023-01-23T20:12:01.314Z,93636.00
2023-01-23T20:13:01.322Z,93638.00
2023-01-23T20:14:01.333Z,93638.00
2023-01-23T20:15:01.352Z,93640.00
2023-01-23T20:16:01.354Z,93642.00
2023-01-23T20:17:01.426Z,93640.00
2023-01-23T20:18:01.360Z,93640.00
2023-01-23T20:19:01.403Z,93642.00
2023-01-23T20:20:01.376Z,93644.00
2023-01-23T20:21:01.401Z,93645.00
2023-01-23T20:22:01.391Z,93642.00
2023-01-23T20:23:01.395Z,93642.00
2023-01-23T20:24:01.450Z,93642.00
2023-01-23T20:25:01.440Z,93642.00
2023-01-23T20:26:01.498Z,93644.00
2023-01-23T20:27:01.425Z,93644.00
2023-01-23T20:28:01.441Z,93642.00
2023-01-23T20:29:01.427Z,93642.00
2023-01-23T20:30:01.408Z,93644.00
2023-01-23T20:31:01.493Z,93647.00
2023-01-23T20:32:01.459Z,93645.00
2023-01-23T20:33:01.433Z,93649.00
2023-01-23T20:34:01.429Z,93649.00
2023-01-23T20:35:01.440Z,93649.00
2023-01-23T20:36:01.422Z,93653.00
2023-01-23T20:37:01.436Z,93649.00
2023-01-23T20:38:01.462Z,93655.00
2023-01-23T20:39:01.457Z,93659.00
2023-01-23T20:40:01.454Z,93655.00
2023-01-23T20:41:01.449Z,93661.00
2023-01-23T20:42:01.535Z,93663.00
2023-01-23T20:43:01.469Z,93659.00
2023-01-23T20:44:01.464Z,93665.00
2023-01-23T20:45:01.507Z,93657.00
2023-01-23T20:46:01.465Z,93657.00
2023-01-23T20:47:01.464Z,93665.00
2023-01-23T20:48:01.473Z,93667.00
2023-01-23T20:49:01.465Z,93665.00
2023-01-23T20:50:01.485Z,93673.00
2023-01-23T20:51:01.587Z,93673.00
2023-01-23T20:52:01.493Z,93675.00
2023-01-23T20:53:01.488Z,93679.00
2023-01-23T20:54:01.509Z,93675.00
2023-01-23T20:55:01.493Z,93679.00
2023-01-23T20:56:01.503Z,93679.00
2023-01-23T20:57:01.499Z,93675.00
2023-01-23T20:58:01.597Z,93675.00
2023-01-23T20:59:01.495Z,93681.00
2023-01-23T21:00:01.513Z,93683.00
2023-01-23T21:01:01.528Z,93679.00
2023-01-23T21:02:01.519Z,93677.00
2023-01-23T21:03:01.604Z,93681.00
2023-01-23T21:04:01.522Z,93673.00
2023-01-23T21:05:01.612Z,93677.00
2023-01-23T21:06:01.561Z,93673.00
2023-01-23T21:07:01.579Z,93671.00
2023-01-23T21:08:01.568Z,93669.00
2023-01-23T21:09:01.577Z,93671.00
2023-01-23T21:10:01.584Z,93677.00
2023-01-23T21:11:01.572Z,93671.00
2023-01-23T21:12:01.565Z,93673.00
2023-01-23T21:13:01.596Z,93677.00
2023-01-23T21:14:01.643Z,93677.00
2023-01-23T21:15:01.586Z,93671.00
2023-01-23T21:16:01.607Z,93677.00
2023-01-23T23:50:02.382Z,93755.00
2023-01-23T23:58:02.432Z,93745.00
